sensor_id;sensor_type;location;lat;lon;timestamp;pressure;altitude;pressure_sealevel;temperature;humidity
33697;BME280;20031;43.416;23.232;2023-12-14T00:01:21;98855.44;;;4.77;96.54
33697;BME280;20031;43.416;23.232;2023-12-14T00:03:46;98868.63;;;4.74;95.87
33697;BME280;20031;43.416;23.232;2023-12-14T00:06:12;98848.00;;;4.74;96.23
33697;BME280;20031;43.416;23.232;2023-12-14T00:08:38;98892.81;;;4.73;96.48
33697;BME280;20031;43.416;23.232;2023-12-14T00:11:08;98889.25;;;4.74;96.77
33697;BME280;20031;43.416;23.232;2023-12-14T00:13:34;98840.78;;;4.78;96.41
33697;BME280;20031;43.416;23.232;2023-12-14T00:16:00;98917.34;;;4.77;96.58
33697;BME280;20031;43.416;23.232;2023-12-14T00:18:25;98879.59;;;4.76;96.27
33697;BME280;20031;43.416;23.232;2023-12-14T00:20:51;98903.47;;;4.78;96.72
33697;BME280;20031;43.416;23.232;2023-12-14T00:23:18;98887.19;;;4.78;96.71
33697;BME280;20031;43.416;23.232;2023-12-14T00:25:43;98882.69;;;4.80;96.52
33697;BME280;20031;43.416;23.232;2023-12-14T00:28:09;98899.94;;;4.79;96.74
33697;BME280;20031;43.416;23.232;2023-12-14T00:30:34;98902.84;;;4.84;97.21
33697;BME280;20031;43.416;23.232;2023-12-14T00:32:59;98901.41;;;4.82;96.57
33697;BME280;20031;43.416;23.232;2023-12-14T00:35:25;98915.91;;;4.83;96.78
33697;BME280;20031;43.416;23.232;2023-12-14T00:37:50;98917.81;;;4.81;96.48
33697;BME280;20031;43.416;23.232;2023-12-14T00:40:16;98871.72;;;4.78;97.17
33697;BME280;20031;43.416;23.232;2023-12-14T00:42:42;98889.91;;;4.76;96.79
33697;BME280;20031;43.416;23.232;2023-12-14T00:45:07;98914.06;;;4.75;97.20
33697;BME280;20031;43.416;23.232;2023-12-14T00:47:33;98916.66;;;4.75;96.93
33697;BME280;20031;43.416;23.232;2023-12-14T00:49:58;98890.88;;;4.75;97.29
33697;BME280;20031;43.416;23.232;2023-12-14T00:52:24;98894.94;;;4.78;97.06
33697;BME280;20031;43.416;23.232;2023-12-14T00:54:49;98899.94;;;4.79;97.10
33697;BME280;20031;43.416;23.232;2023-12-14T00:57:15;98901.41;;;4.82;97.50
33697;BME280;20031;43.416;23.232;2023-12-14T00:59:41;98904.63;;;4.84;97.50
33697;BME280;20031;43.416;23.232;2023-12-14T01:02:06;98900.56;;;4.81;97.50
33697;BME280;20031;43.416;23.232;2023-12-14T01:04:32;98905.09;;;4.79;97.52
33697;BME280;20031;43.416;23.232;2023-12-14T01:06:57;98896.03;;;4.75;97.04
33697;BME280;20031;43.416;23.232;2023-12-14T01:09:23;98913.13;;;4.76;97.28
33697;BME280;20031;43.416;23.232;2023-12-14T01:11:49;98905.25;;;4.78;97.88
33697;BME280;20031;43.416;23.232;2023-12-14T01:14:14;98908.63;;;4.78;97.83
33697;BME280;20031;43.416;23.232;2023-12-14T01:16:40;98921.50;;;4.78;97.78
33697;BME280;20031;43.416;23.232;2023-12-14T01:19:05;98894.94;;;4.78;97.60
33697;BME280;20031;43.416;23.232;2023-12-14T01:21:31;98891.97;;;4.73;97.40
33697;BME280;20031;43.416;23.232;2023-12-14T01:23:57;98905.00;;;4.71;97.31
33697;BME280;20031;43.416;23.232;2023-12-14T01:26:22;98889.53;;;4.71;97.51
33697;BME280;20031;43.416;23.232;2023-12-14T01:28:48;98895.53;;;4.72;97.84
33697;BME280;20031;43.416;23.232;2023-12-14T01:31:13;98885.69;;;4.67;97.51
33697;BME280;20031;43.416;23.232;2023-12-14T01:33:39;98903.03;;;4.65;97.84
33697;BME280;20031;43.416;23.232;2023-12-14T01:36:04;98880.00;;;4.64;97.57
33697;BME280;20031;43.416;23.232;2023-12-14T01:38:30;98858.25;;;4.66;97.92
33697;BME280;20031;43.416;23.232;2023-12-14T01:40:55;98897.25;;;4.63;98.16
33697;BME280;20031;43.416;23.232;2023-12-14T01:43:21;98866.16;;;4.65;98.13
33697;BME280;20031;43.416;23.232;2023-12-14T01:45:47;98862.91;;;4.63;98.07
33697;BME280;20031;43.416;23.232;2023-12-14T01:48:12;98890.31;;;4.64;97.74
33697;BME280;20031;43.416;23.232;2023-12-14T01:50:38;98866.16;;;4.65;98.14
33697;BME280;20031;43.416;23.232;2023-12-14T01:53:04;98861.16;;;4.63;98.17
33697;BME280;20031;43.416;23.232;2023-12-14T01:55:29;98887.88;;;4.62;98.30
33697;BME280;20031;43.416;23.232;2023-12-14T01:57:55;98868.06;;;4.63;98.15
33697;BME280;20031;43.416;23.232;2023-12-14T02:00:52;98879.69;;;4.67;98.37
33697;BME280;20031;43.416;23.232;2023-12-14T02:03:20;98863.13;;;4.69;98.20
33697;BME280;20031;43.416;23.232;2023-12-14T02:05:46;98853.09;;;4.66;97.86
33697;BME280;20031;43.416;23.232;2023-12-14T02:08:11;98853.09;;;4.66;98.20
33697;BME280;20031;43.416;23.232;2023-12-14T02:10:37;98863.41;;;4.66;97.70
33697;BME280;20031;43.416;23.232;2023-12-14T02:13:02;98852.28;;;4.66;97.73
33697;BME280;20031;43.416;23.232;2023-12-14T02:15:28;98833.28;;;4.67;97.91
33697;BME280;20031;43.416;23.232;2023-12-14T02:17:54;98836.00;;;4.65;97.97
33697;BME280;20031;43.416;23.232;2023-12-14T02:20:20;98836.16;;;4.64;98.32
33697;BME280;20031;43.416;23.232;2023-12-14T02:22:54;98824.06;;;4.64;98.22
33697;BME280;20031;43.416;23.232;2023-12-14T02:25:21;98873.72;;;4.66;98.31
33697;BME280;20031;43.416;23.232;2023-12-14T02:27:48;98854.44;;;4.70;98.64
33697;BME280;20031;43.416;23.232;2023-12-14T02:30:14;98817.50;;;4.70;98.16
33697;BME280;20031;43.416;23.232;2023-12-14T02:32:40;98856.34;;;4.68;98.24
33697;BME280;20031;43.416;23.232;2023-12-14T02:35:06;98848.28;;;4.71;98.01
33697;BME280;20031;43.416;23.232;2023-12-14T02:37:33;98832.53;;;4.74;98.33
33697;BME280;20031;43.416;23.232;2023-12-14T02:39:59;98823.38;;;4.80;98.80
33697;BME280;20031;43.416;23.232;2023-12-14T02:42:26;98839.81;;;4.79;98.77
33697;BME280;20031;43.416;23.232;2023-12-14T02:44:53;98844.00;;;4.80;99.00
33697;BME280;20031;43.416;23.232;2023-12-14T02:47:19;98835.78;;;4.76;98.63
33697;BME280;20031;43.416;23.232;2023-12-14T02:49:44;98829.66;;;4.77;98.32
33697;BME280;20031;43.416;23.232;2023-12-14T02:52:10;98835.09;;;4.74;98.69
33697;BME280;20031;43.416;23.232;2023-12-14T02:54:38;98833.34;;;4.75;98.61
33697;BME280;20031;43.416;23.232;2023-12-14T02:57:04;98815.75;;;4.70;98.61
33697;BME280;20031;43.416;23.232;2023-12-14T02:59:29;98843.44;;;4.68;98.63
33697;BME280;20031;43.416;23.232;2023-12-14T03:01:55;98846.47;;;4.64;98.15
33697;BME280;20031;43.416;23.232;2023-12-14T03:04:20;98828.66;;;4.70;98.83
33697;BME280;20031;43.416;23.232;2023-12-14T03:06:46;98855.69;;;4.66;98.37
33697;BME280;20031;43.416;23.232;2023-12-14T03:09:11;98827.34;;;4.66;98.37
33697;BME280;20031;43.416;23.232;2023-12-14T03:11:36;98837.94;;;4.63;98.76
33697;BME280;20031;43.416;23.232;2023-12-14T03:14:02;98833.09;;;4.60;98.28
33697;BME280;20031;43.416;23.232;2023-12-14T03:16:27;98859.97;;;4.58;98.75
33697;BME280;20031;43.416;23.232;2023-12-14T03:18:52;98859.66;;;4.61;98.50
33697;BME280;20031;43.416;23.232;2023-12-14T03:21:19;98861.47;;;4.60;98.85
33697;BME280;20031;43.416;23.232;2023-12-14T03:23:45;98862.41;;;4.59;98.63
33697;BME280;20031;43.416;23.232;2023-12-14T03:26:10;98856.44;;;4.59;98.84
33697;BME280;20031;43.416;23.232;2023-12-14T03:28:36;98884.97;;;4.57;98.86
33697;BME280;20031;43.416;23.232;2023-12-14T03:31:02;98893.50;;;4.58;98.38
33697;BME280;20031;43.416;23.232;2023-12-14T03:33:28;98898.25;;;4.53;98.84
33697;BME280;20031;43.416;23.232;2023-12-14T03:35:53;98962.06;;;4.51;98.47
33697;BME280;20031;43.416;23.232;2023-12-14T03:38:19;98962.34;;;4.48;98.96
33697;BME280;20031;43.416;23.232;2023-12-14T03:40:44;98949.63;;;4.47;98.73
33697;BME280;20031;43.416;23.232;2023-12-14T03:43:10;98971.19;;;4.46;99.06
33697;BME280;20031;43.416;23.232;2023-12-14T03:45:35;98978.13;;;4.45;98.60
33697;BME280;20031;43.416;23.232;2023-12-14T03:48:01;98974.56;;;4.46;98.80
33697;BME280;20031;43.416;23.232;2023-12-14T03:50:26;98982.44;;;4.45;99.14
33697;BME280;20031;43.416;23.232;2023-12-14T03:52:53;99004.38;;;4.49;99.27
33697;BME280;20031;43.416;23.232;2023-12-14T03:55:18;98980.25;;;4.50;99.43
33697;BME280;20031;43.416;23.232;2023-12-14T03:57:44;98981.72;;;4.52;99.25
33697;BME280;20031;43.416;23.232;2023-12-14T04:00:10;98989.97;;;4.55;99.11
33697;BME280;20031;43.416;23.232;2023-12-14T04:02:36;98979.66;;;4.55;99.58
33697;BME280;20031;43.416;23.232;2023-12-14T04:05:02;98994.81;;;4.58;99.23
33697;BME280;20031;43.416;23.232;2023-12-14T04:07:27;99035.78;;;4.61;99.68
33697;BME280;20031;43.416;23.232;2023-12-14T04:09:53;98997.78;;;4.63;99.44
33697;BME280;20031;43.416;23.232;2023-12-14T04:12:18;98994.91;;;4.66;99.48
33697;BME280;20031;43.416;23.232;2023-12-14T04:14:46;99013.47;;;4.70;99.81
33697;BME280;20031;43.416;23.232;2023-12-14T04:17:11;99008.16;;;4.71;99.49
33697;BME280;20031;43.416;23.232;2023-12-14T04:19:41;99002.03;;;4.72;99.31
33697;BME280;20031;43.416;23.232;2023-12-14T04:22:06;99007.22;;;4.72;99.22
33697;BME280;20031;43.416;23.232;2023-12-14T04:24:32;99009.63;;;4.74;99.44
33697;BME280;20031;43.416;23.232;2023-12-14T04:26:58;99005.97;;;4.76;99.80
33697;BME280;20031;43.416;23.232;2023-12-14T04:29:23;99001.44;;;4.78;99.79
33697;BME280;20031;43.416;23.232;2023-12-14T04:31:49;99015.19;;;4.79;99.50
33697;BME280;20031;43.416;23.232;2023-12-14T04:34:14;98996.00;;;4.81;99.69
33697;BME280;20031;43.416;23.232;2023-12-14T04:36:45;99020.84;;;4.82;99.41
33697;BME280;20031;43.416;23.232;2023-12-14T04:39:11;99009.72;;;4.82;100.00
33697;BME280;20031;43.416;23.232;2023-12-14T04:41:37;99013.59;;;4.86;99.79
33697;BME280;20031;43.416;23.232;2023-12-14T04:44:03;99043.75;;;4.85;99.89
33697;BME280;20031;43.416;23.232;2023-12-14T04:46:28;99028.28;;;4.85;100.00
33697;BME280;20031;43.416;23.232;2023-12-14T04:48:54;99025.53;;;4.87;100.00
33697;BME280;20031;43.416;23.232;2023-12-14T04:51:20;99022.00;;;4.88;99.98
33697;BME280;20031;43.416;23.232;2023-12-14T04:53:45;99022.81;;;4.88;100.00
33697;BME280;20031;43.416;23.232;2023-12-14T04:56:11;99043.44;;;4.88;99.69
33697;BME280;20031;43.416;23.232;2023-12-14T04:58:39;99029.22;;;4.84;99.89
33697;BME280;20031;43.416;23.232;2023-12-14T05:01:04;99045.66;;;4.83;99.70
33697;BME280;20031;43.416;23.232;2023-12-14T05:03:30;99055.16;;;4.83;100.00
33697;BME280;20031;43.416;23.232;2023-12-14T05:05:55;99055.16;;;4.83;99.89
33697;BME280;20031;43.416;23.232;2023-12-14T05:08:21;99074.84;;;4.84;99.75
33697;BME280;20031;43.416;23.232;2023-12-14T05:10:47;99080.16;;;4.82;99.83
33697;BME280;20031;43.416;23.232;2023-12-14T05:13:12;99080.16;;;4.82;100.00
33697;BME280;20031;43.416;23.232;2023-12-14T05:15:38;99092.25;;;4.82;100.00
33697;BME280;20031;43.416;23.232;2023-12-14T05:18:03;99105.94;;;4.82;100.00
33697;BME280;20031;43.416;23.232;2023-12-14T05:20:29;99118.03;;;4.82;100.00
33697;BME280;20031;43.416;23.232;2023-12-14T05:22:54;99095.47;;;4.84;100.00
33697;BME280;20031;43.416;23.232;2023-12-14T05:25:20;99116.75;;;4.86;100.00
33697;BME280;20031;43.416;23.232;2023-12-14T05:27:46;99109.56;;;4.89;100.00
33697;BME280;20031;43.416;23.232;2023-12-14T05:30:11;99107.63;;;4.91;100.00
33697;BME280;20031;43.416;23.232;2023-12-14T05:32:37;99127.97;;;4.94;100.00
33697;BME280;20031;43.416;23.232;2023-12-14T05:35:02;99115.75;;;4.96;100.00
33697;BME280;20031;43.416;23.232;2023-12-14T05:37:28;99131.75;;;5.00;100.00
33697;BME280;20031;43.416;23.232;2023-12-14T05:39:53;99159.81;;;5.03;100.00
33697;BME280;20031;43.416;23.232;2023-12-14T05:42:19;99142.31;;;5.06;100.00
33697;BME280;20031;43.416;23.232;2023-12-14T05:44:44;99151.66;;;5.07;100.00
33697;BME280;20031;43.416;23.232;2023-12-14T05:47:10;99132.34;;;5.11;100.00
33697;BME280;20031;43.416;23.232;2023-12-14T05:49:36;99149.75;;;5.09;100.00
33697;BME280;20031;43.416;23.232;2023-12-14T05:52:02;99154.09;;;5.08;100.00
33697;BME280;20031;43.416;23.232;2023-12-14T05:54:28;99135.75;;;5.11;100.00
33697;BME280;20031;43.416;23.232;2023-12-14T05:56:53;99173.47;;;5.12;100.00
33697;BME280;20031;43.416;23.232;2023-12-14T05:59:19;99169.78;;;5.15;100.00
33697;BME280;20031;43.416;23.232;2023-12-14T06:01:44;99171.28;;;5.17;100.00
33697;BME280;20031;43.416;23.232;2023-12-14T06:04:10;99176.44;;;5.17;100.00
33697;BME280;20031;43.416;23.232;2023-12-14T06:06:38;99161.47;;;5.21;100.00
33697;BME280;20031;43.416;23.232;2023-12-14T06:09:03;99178.88;;;5.19;100.00
33697;BME280;20031;43.416;23.232;2023-12-14T06:11:29;99183.09;;;5.20;100.00
33697;BME280;20031;43.416;23.232;2023-12-14T06:13:54;99167.59;;;5.20;100.00
33697;BME280;20031;43.416;23.232;2023-12-14T06:16:19;99183.59;;;5.23;100.00
33697;BME280;20031;43.416;23.232;2023-12-14T06:18:45;99210.19;;;5.24;100.00
33697;BME280;20031;43.416;23.232;2023-12-14T06:21:11;99201.00;;;5.21;100.00
33697;BME280;20031;43.416;23.232;2023-12-14T06:23:37;99207.75;;;5.22;100.00
33697;BME280;20031;43.416;23.232;2023-12-14T06:26:03;99214.84;;;5.20;100.00
33697;BME280;20031;43.416;23.232;2023-12-14T06:28:29;99218.63;;;5.26;100.00
33697;BME280;20031;43.416;23.232;2023-12-14T06:30:56;99210.28;;;5.32;100.00
33697;BME280;20031;43.416;23.232;2023-12-14T06:33:21;99228.06;;;5.35;100.00
33697;BME280;20031;43.416;23.232;2023-12-14T06:35:47;99221.81;;;5.37;100.00
33697;BME280;20031;43.416;23.232;2023-12-14T06:38:12;99218.28;;;5.38;100.00
33697;BME280;20031;43.416;23.232;2023-12-14T06:40:38;99244.75;;;5.40;100.00
33697;BME280;20031;43.416;23.232;2023-12-14T06:43:06;99237.66;;;5.42;100.00
33697;BME280;20031;43.416;23.232;2023-12-14T06:45:32;99247.53;;;5.47;100.00
33697;BME280;20031;43.416;23.232;2023-12-14T06:47:57;99240.84;;;5.54;100.00
33697;BME280;20031;43.416;23.232;2023-12-14T06:50:23;99230.34;;;5.55;100.00
33697;BME280;20031;43.416;23.232;2023-12-14T06:52:48;99234.13;;;5.60;100.00
33697;BME280;20031;43.416;23.232;2023-12-14T06:55:14;99249.03;;;5.66;100.00
33697;BME280;20031;43.416;23.232;2023-12-14T06:57:42;99247.41;;;5.65;100.00
33697;BME280;20031;43.416;23.232;2023-12-14T07:00:09;99239.22;;;5.70;100.00
33697;BME280;20031;43.416;23.232;2023-12-14T07:02:34;99263.38;;;5.78;100.00
33697;BME280;20031;43.416;23.232;2023-12-14T07:05:00;99259.09;;;5.87;100.00
33697;BME280;20031;43.416;23.232;2023-12-14T07:07:26;99266.56;;;5.90;100.00
33697;BME280;20031;43.416;23.232;2023-12-14T07:09:51;99265.31;;;5.94;100.00
33697;BME280;20031;43.416;23.232;2023-12-14T07:12:17;99270.97;;;5.97;100.00
33697;BME280;20031;43.416;23.232;2023-12-14T07:14:43;99267.50;;;6.06;100.00
33697;BME280;20031;43.416;23.232;2023-12-14T07:17:08;99259.66;;;6.15;100.00
33697;BME280;20031;43.416;23.232;2023-12-14T07:19:34;99252.13;;;6.22;100.00
33697;BME280;20031;43.416;23.232;2023-12-14T07:22:01;99259.13;;;6.29;100.00
33697;BME280;20031;43.416;23.232;2023-12-14T07:24:26;99268.69;;;6.37;100.00
33697;BME280;20031;43.416;23.232;2023-12-14T07:26:51;99281.69;;;6.45;100.00
33697;BME280;20031;43.416;23.232;2023-12-14T07:29:17;99276.56;;;6.53;100.00
33697;BME280;20031;43.416;23.232;2023-12-14T07:31:42;99269.00;;;6.59;100.00
33697;BME280;20031;43.416;23.232;2023-12-14T07:34:08;99270.19;;;6.64;100.00
33697;BME280;20031;43.416;23.232;2023-12-14T07:36:33;99263.78;;;6.76;100.00
33697;BME280;20031;43.416;23.232;2023-12-14T07:38:59;99251.91;;;6.91;100.00
33697;BME280;20031;43.416;23.232;2023-12-14T07:41:26;99257.75;;;7.01;100.00
33697;BME280;20031;43.416;23.232;2023-12-14T07:43:55;99256.50;;;7.13;100.00
33697;BME280;20031;43.416;23.232;2023-12-14T07:46:21;99270.59;;;7.18;99.98
33697;BME280;20031;43.416;23.232;2023-12-14T07:48:46;99271.91;;;7.22;99.50
33697;BME280;20031;43.416;23.232;2023-12-14T07:51:12;99262.00;;;7.18;99.81
33697;BME280;20031;43.416;23.232;2023-12-14T07:53:38;99268.50;;;7.22;99.30
33697;BME280;20031;43.416;23.232;2023-12-14T07:56:04;99268.34;;;7.23;98.97
33697;BME280;20031;43.416;23.232;2023-12-14T07:58:30;99266.59;;;7.24;98.25
33697;BME280;20031;43.416;23.232;2023-12-14T08:00:55;99277.75;;;7.24;98.21
33697;BME280;20031;43.416;23.232;2023-12-14T08:03:21;99276.78;;;7.25;97.50
33697;BME280;20031;43.416;23.232;2023-12-14T08:05:47;99291.34;;;7.26;97.13
33697;BME280;20031;43.416;23.232;2023-12-14T08:08:12;99299.94;;;7.27;97.18
33697;BME280;20031;43.416;23.232;2023-12-14T08:10:38;99289.56;;;7.27;96.62
33697;BME280;20031;43.416;23.232;2023-12-14T08:13:04;99287.63;;;7.29;96.43
33697;BME280;20031;43.416;23.232;2023-12-14T08:15:30;99285.19;;;7.27;96.05
33697;BME280;20031;43.416;23.232;2023-12-14T08:17:55;99289.25;;;7.30;95.30
33697;BME280;20031;43.416;23.232;2023-12-14T08:20:21;99293.47;;;7.31;95.12
33697;BME280;20031;43.416;23.232;2023-12-14T08:22:47;99299.94;;;7.35;94.86
33697;BME280;20031;43.416;23.232;2023-12-14T08:25:13;99298.66;;;7.39;94.73
33697;BME280;20031;43.416;23.232;2023-12-14T08:27:43;99290.75;;;7.40;94.49
33697;BME280;20031;43.416;23.232;2023-12-14T08:30:12;99305.47;;;7.40;93.76
33697;BME280;20031;43.416;23.232;2023-12-14T08:32:38;99319.75;;;7.44;93.63
33697;BME280;20031;43.416;23.232;2023-12-14T08:35:04;99306.63;;;7.45;93.74
33697;BME280;20031;43.416;23.232;2023-12-14T08:37:30;99307.63;;;7.52;93.44
33697;BME280;20031;43.416;23.232;2023-12-14T08:39:55;99325.28;;;7.57;93.17
33697;BME280;20031;43.416;23.232;2023-12-14T08:42:21;99318.00;;;7.60;93.27
33697;BME280;20031;43.416;23.232;2023-12-14T08:44:47;99334.06;;;7.63;93.02
33697;BME280;20031;43.416;23.232;2023-12-14T08:47:12;99329.53;;;7.65;92.51
33697;BME280;20031;43.416;23.232;2023-12-14T08:49:37;99338.94;;;7.66;92.66
33697;BME280;20031;43.416;23.232;2023-12-14T08:52:03;99346.53;;;7.68;92.62
33697;BME280;20031;43.416;23.232;2023-12-14T08:54:29;99352.53;;;7.68;92.55
33697;BME280;20031;43.416;23.232;2023-12-14T08:56:55;99333.25;;;7.71;92.34
33697;BME280;20031;43.416;23.232;2023-12-14T08:59:20;99346.38;;;7.77;91.85
33697;BME280;20031;43.416;23.232;2023-12-14T09:01:46;99358.38;;;7.78;92.05
33697;BME280;20031;43.416;23.232;2023-12-14T09:04:11;99342.34;;;7.83;91.95
33697;BME280;20031;43.416;23.232;2023-12-14T09:06:37;99339.28;;;7.87;91.86
33697;BME280;20031;43.416;23.232;2023-12-14T09:09:02;99331.34;;;7.89;91.39
33697;BME280;20031;43.416;23.232;2023-12-14T09:11:28;99319.03;;;7.83;91.28
33697;BME280;20031;43.416;23.232;2023-12-14T09:13:54;99326.31;;;7.87;91.37
33697;BME280;20031;43.416;23.232;2023-12-14T09:16:20;99331.50;;;7.87;91.38
33697;BME280;20031;43.416;23.232;2023-12-14T09:18:46;99326.31;;;7.87;91.33
33697;BME280;20031;43.416;23.232;2023-12-14T09:21:12;99346.56;;;7.84;91.24
33697;BME280;20031;43.416;23.232;2023-12-14T09:23:37;99357.09;;;7.82;90.88
33697;BME280;20031;43.416;23.232;2023-12-14T09:26:03;99334.91;;;7.80;90.49
33697;BME280;20031;43.416;23.232;2023-12-14T09:28:28;99332.47;;;7.78;91.05
33697;BME280;20031;43.416;23.232;2023-12-14T09:30:53;99323.72;;;7.79;91.29
33697;BME280;20031;43.416;23.232;2023-12-14T09:33:19;99323.41;;;7.82;91.35
33697;BME280;20031;43.416;23.232;2023-12-14T09:35:44;99322.13;;;7.86;91.60
33697;BME280;20031;43.416;23.232;2023-12-14T09:38:10;99316.94;;;7.94;90.98
33697;BME280;20031;43.416;23.232;2023-12-14T09:40:38;99323.44;;;7.98;90.96
33697;BME280;20031;43.416;23.232;2023-12-14T09:43:05;99302.03;;;8.04;90.86
33697;BME280;20031;43.416;23.232;2023-12-14T09:45:30;99325.28;;;8.13;90.67
33697;BME280;20031;43.416;23.232;2023-12-14T09:47:57;99324.78;;;8.18;90.90
33697;BME280;20031;43.416;23.232;2023-12-14T09:50:24;99333.69;;;8.23;91.00
33697;BME280;20031;43.416;23.232;2023-12-14T09:52:49;99308.41;;;8.25;91.08
33697;BME280;20031;43.416;23.232;2023-12-14T09:55:15;99298.69;;;8.43;91.20
33697;BME280;20031;43.416;23.232;2023-12-14T09:57:41;99295.25;;;8.59;90.69
33697;BME280;20031;43.416;23.232;2023-12-14T10:00:07;99308.03;;;8.68;90.79
33697;BME280;20031;43.416;23.232;2023-12-14T10:02:37;99317.28;;;8.70;90.21
33697;BME280;20031;43.416;23.232;2023-12-14T10:05:06;99326.06;;;8.69;89.93
33697;BME280;20031;43.416;23.232;2023-12-14T10:07:40;99317.31;;;8.63;89.33
33697;BME280;20031;43.416;23.232;2023-12-14T10:10:10;99320.38;;;8.58;89.30
33697;BME280;20031;43.416;23.232;2023-12-14T10:12:54;99290.75;;;8.53;89.40
33697;BME280;20031;43.416;23.232;2023-12-14T10:15:20;99307.75;;;8.55;89.21
33697;BME280;20031;43.416;23.232;2023-12-14T10:17:51;99306.16;;;8.54;89.90
33697;BME280;20031;43.416;23.232;2023-12-14T10:20:22;99306.94;;;8.55;89.51
33697;BME280;20031;43.416;23.232;2023-12-14T10:22:49;99302.56;;;8.55;89.34
33697;BME280;20031;43.416;23.232;2023-12-14T10:25:15;99319.59;;;8.58;89.50
33697;BME280;20031;43.416;23.232;2023-12-14T10:27:40;99323.81;;;8.59;89.19
33697;BME280;20031;43.416;23.232;2023-12-14T10:30:07;99316.34;;;8.63;89.78
33697;BME280;20031;43.416;23.232;2023-12-14T10:32:33;99312.09;;;8.70;90.01
33697;BME280;20031;43.416;23.232;2023-12-14T10:34:59;99332.53;;;8.81;89.79
33697;BME280;20031;43.416;23.232;2023-12-14T10:37:25;99319.69;;;8.88;89.84
33697;BME280;20031;43.416;23.232;2023-12-14T10:39:51;99342.56;;;8.92;89.68
33697;BME280;20031;43.416;23.232;2023-12-14T10:42:20;99337.06;;;8.95;89.83
33697;BME280;20031;43.416;23.232;2023-12-14T10:44:49;99327.59;;;9.02;90.13
33697;BME280;20031;43.416;23.232;2023-12-14T10:47:19;99313.47;;;9.13;90.32
33697;BME280;20031;43.416;23.232;2023-12-14T10:49:48;99313.56;;;9.35;90.66
33697;BME280;20031;43.416;23.232;2023-12-14T10:52:15;99319.03;;;9.48;89.97
33697;BME280;20031;43.416;23.232;2023-12-14T10:54:41;99316.50;;;9.62;90.34
33697;BME280;20031;43.416;23.232;2023-12-14T10:57:07;99316.56;;;9.84;89.42
33697;BME280;20031;43.416;23.232;2023-12-14T10:59:34;99316.16;;;9.95;88.60
33697;BME280;20031;43.416;23.232;2023-12-14T11:02:07;99307.34;;;10.04;88.77
33697;BME280;20031;43.416;23.232;2023-12-14T11:04:59;99326.47;;;10.11;87.65
33697;BME280;20031;43.416;23.232;2023-12-14T11:07:49;99319.50;;;10.12;87.62
33697;BME280;20031;43.416;23.232;2023-12-14T11:10:20;99328.44;;;10.09;87.09
33697;BME280;20031;43.416;23.232;2023-12-14T11:13:01;99320.00;;;10.07;86.88
33697;BME280;20031;43.416;23.232;2023-12-14T11:15:28;99312.66;;;10.11;86.63
33697;BME280;20031;43.416;23.232;2023-12-14T11:20:58;99323.81;;;10.19;86.55
33697;BME280;20031;43.416;23.232;2023-12-14T11:23:26;99326.41;;;10.19;85.17
33697;BME280;20031;43.416;23.232;2023-12-14T11:26:06;99327.56;;;10.17;84.91
33697;BME280;20031;43.416;23.232;2023-12-14T11:28:38;99343.06;;;10.10;85.15
33697;BME280;20031;43.416;23.232;2023-12-14T11:31:10;99348.97;;;10.04;84.39
33697;BME280;20031;43.416;23.232;2023-12-14T11:33:36;99345.25;;;9.99;84.13
33697;BME280;20031;43.416;23.232;2023-12-14T11:36:02;99353.88;;;9.91;84.34
33697;BME280;20031;43.416;23.232;2023-12-14T11:38:31;99360.69;;;9.92;84.83
33697;BME280;20031;43.416;23.232;2023-12-14T11:41:00;99364.00;;;9.94;84.82
33697;BME280;20031;43.416;23.232;2023-12-14T11:43:26;99361.84;;;9.98;85.18
33697;BME280;20031;43.416;23.232;2023-12-14T11:45:52;99369.94;;;10.03;85.08
33697;BME280;20031;43.416;23.232;2023-12-14T11:48:18;99363.22;;;10.08;85.30
33697;BME280;20031;43.416;23.232;2023-12-14T11:50:45;99360.09;;;10.13;84.70
33697;BME280;20031;43.416;23.232;2023-12-14T11:53:11;99351.81;;;10.17;84.72
33697;BME280;20031;43.416;23.232;2023-12-14T11:55:39;99356.25;;;10.31;84.77
33697;BME280;20031;43.416;23.232;2023-12-14T11:58:05;99346.75;;;10.38;83.57
33697;BME280;20031;43.416;23.232;2023-12-14T12:00:31;99347.31;;;10.48;83.08
33697;BME280;20031;43.416;23.232;2023-12-14T12:03:10;99338.00;;;10.53;82.55
33697;BME280;20031;43.416;23.232;2023-12-14T12:05:38;99330.22;;;10.53;82.37
33697;BME280;20031;43.416;23.232;2023-12-14T12:08:04;99325.78;;;10.54;81.95
33697;BME280;20031;43.416;23.232;2023-12-14T12:10:30;99324.19;;;10.53;81.67
33697;BME280;20031;43.416;23.232;2023-12-14T12:13:17;99319.34;;;10.50;81.78
33697;BME280;20031;43.416;23.232;2023-12-14T12:15:43;99315.13;;;10.49;81.72
33697;BME280;20031;43.416;23.232;2023-12-14T12:18:11;99335.31;;;10.47;81.52
33697;BME280;20031;43.416;23.232;2023-12-14T12:20:37;99333.75;;;10.38;81.31
33697;BME280;20031;43.416;23.232;2023-12-14T12:23:03;99342.59;;;10.29;81.73
33697;BME280;20031;43.416;23.232;2023-12-14T12:25:30;99347.22;;;10.19;81.98
33697;BME280;20031;43.416;23.232;2023-12-14T12:27:59;99358.69;;;10.10;81.54
33697;BME280;20031;43.416;23.232;2023-12-14T12:30:25;99361.97;;;10.04;82.12
33697;BME280;20031;43.416;23.232;2023-12-14T12:32:51;99368.50;;;10.00;82.92
33697;BME280;20031;43.416;23.232;2023-12-14T12:35:21;99366.88;;;9.99;83.06
33697;BME280;20031;43.416;23.232;2023-12-14T12:37:46;99369.13;;;10.02;83.55
33697;BME280;20031;43.416;23.232;2023-12-14T12:40:12;99364.59;;;10.04;83.69
33697;BME280;20031;43.416;23.232;2023-12-14T12:42:41;99371.38;;;10.05;83.80
33697;BME280;20031;43.416;23.232;2023-12-14T12:45:07;99358.38;;;10.05;83.37
33697;BME280;20031;43.416;23.232;2023-12-14T12:47:32;99372.38;;;10.04;83.53
33697;BME280;20031;43.416;23.232;2023-12-14T12:49:58;99381.50;;;10.00;84.16
33697;BME280;20031;43.416;23.232;2023-12-14T12:52:23;99383.78;;;9.95;84.05
33697;BME280;20031;43.416;23.232;2023-12-14T12:54:49;99374.41;;;9.94;84.04
33697;BME280;20031;43.416;23.232;2023-12-14T12:57:14;99378.28;;;9.90;84.84